Time;durP1;ratioP1;P1;durP2;ratioP2;P2;SDS_P1;SDS_P2;PMS_P1;PMS_P2;Temp;Humidity;BMP_temperature;BMP_pressure;BME280_temperature;BME280_humidity;BME280_pressure;Samples;Min_cycle;Max_cycle;Signal;HPM_P1;HPM_P2
2023/03/01 00:01:36;;;;;;;0.10;0.10;;;-0.10;99.90;230.40;231737.00;;;;5051007;28;20625;-75
2023/03/01 00:04:04;;;;;;;0.10;0.10;;;-0.10;99.90;230.40;231737.00;;;;5043094;28;20195;-76
2023/03/01 00:06:34;;;;;;;0.10;0.10;;;-0.10;99.90;230.40;231737.00;;;;5045096;28;20199;-75
2023/03/01 00:09:02;;;;;;;0.10;0.10;;;-0.20;99.90;230.40;231737.00;;;;5048349;28;20202;-76
2023/03/01 00:11:33;;;;;;;0.10;0.10;;;-0.30;99.90;230.40;231737.00;;;;5044243;28;20271;-76
2023/03/01 00:14:04;;;;;;;0.10;0.10;;;-0.40;99.90;230.40;231737.00;;;;5042788;28;20237;-76
2023/03/01 00:16:35;;;;;;;0.10;0.10;;;-0.40;99.90;230.40;231737.00;;;;5048952;28;20199;-76
2023/03/01 00:19:03;;;;;;;0.10;0.10;;;-0.30;99.90;230.40;231737.00;;;;5033496;28;20237;-77
2023/03/01 00:21:32;;;;;;;0.10;0.10;;;-0.30;99.90;230.40;231737.00;;;;5048820;28;20249;-77
2023/03/01 00:24:01;;;;;;;0.10;0.10;;;-0.40;99.90;230.40;231737.00;;;;5040923;28;20755;-77
2023/03/01 00:26:29;;;;;;;0.20;0.20;;;-0.50;99.90;230.40;231737.00;;;;5036078;28;20221;-76
2023/03/01 00:28:59;;;;;;;0.10;0.10;;;-0.50;99.90;230.40;231737.00;;;;5048444;28;20198;-77
2023/03/01 00:31:30;;;;;;;0.10;0.10;;;-0.50;99.90;230.40;231737.00;;;;5055859;28;20227;-76
2023/03/01 00:34:02;;;;;;;0.17;0.17;;;-0.60;99.90;230.40;231737.00;;;;5048764;28;20202;-76
2023/03/01 00:36:34;;;;;;;0.10;0.10;;;-0.60;99.90;230.40;231737.00;;;;5043700;28;20612;-76
2023/03/01 00:39:06;;;;;;;0.10;0.10;;;-0.60;99.90;230.40;231737.00;;;;5043478;28;20675;-77
2023/03/01 00:41:34;;;;;;;0.10;0.10;;;-0.80;99.90;230.40;231737.00;;;;5052082;28;20242;-77
2023/03/01 00:44:03;;;;;;;0.20;0.20;;;-1.00;99.90;230.40;231737.00;;;;5052133;28;20594;-77
2023/03/01 00:46:31;;;;;;;0.10;0.10;;;-1.00;99.90;230.40;231737.00;;;;5043384;28;20209;-77
2023/03/01 00:49:01;;;;;;;0.20;0.20;;;-1.00;99.90;230.40;231737.00;;;;5044052;28;20218;-77
2023/03/01 00:51:30;;;;;;;0.10;0.10;;;-0.90;99.90;230.40;231737.00;;;;5049944;28;20215;-77
2023/03/01 00:54:03;;;;;;;0.10;0.10;;;-0.90;99.90;230.40;231737.00;;;;5056304;28;20281;-77
2023/03/01 00:56:31;;;;;;;0.20;0.20;;;-0.90;99.90;230.40;231737.00;;;;5046919;28;20199;-77
2023/03/01 00:59:00;;;;;;;0.10;0.10;;;-0.80;99.90;230.40;231737.00;;;;5055006;28;20234;-75
2023/03/01 01:01:31;;;;;;;0.10;0.10;;;-0.80;99.90;230.40;231737.00;;;;5042602;28;20219;-75
2023/03/01 01:04:03;;;;;;;0.10;0.10;;;-0.80;99.90;230.40;231737.00;;;;5037576;28;20688;-75
2023/03/01 01:06:35;;;;;;;0.20;0.20;;;-0.80;99.90;230.40;231737.00;;;;5046625;28;20194;-76
2023/03/01 01:09:07;;;;;;;0.10;0.10;;;-0.80;99.90;230.40;231737.00;;;;5049151;28;20203;-77
2023/03/01 01:11:36;;;;;;;0.10;0.10;;;-0.80;99.90;230.40;231737.00;;;;5043697;28;20591;-76
2023/03/01 01:14:05;;;;;;;0.20;0.20;;;-0.90;99.90;230.40;231737.00;;;;5035259;28;20213;-76
2023/03/01 01:16:33;;;;;;;0.20;0.20;;;-1.00;99.90;230.40;231737.00;;;;5044392;28;20226;-77
2023/03/01 01:19:02;;;;;;;0.10;0.10;;;-1.10;99.90;230.40;231737.00;;;;5045117;28;20201;-75
2023/03/01 01:21:30;;;;;;;0.20;0.20;;;-1.40;99.90;230.40;231737.00;;;;5040959;28;20643;-75
2023/03/01 01:23:59;;;;;;;0.10;0.10;;;-1.70;99.90;230.40;231737.00;;;;5052361;28;20206;-75
2023/03/01 01:26:30;;;;;;;0.20;0.20;;;-1.90;99.90;230.40;231737.00;;;;5047338;28;20726;-75
2023/03/01 01:29:01;;;;;;;0.20;0.20;;;-2.20;99.90;230.40;231737.00;;;;5039375;28;20306;-75
2023/03/01 01:31:29;;;;;;;0.20;0.20;;;-2.20;99.90;230.40;231737.00;;;;5054341;28;20407;-75
2023/03/01 01:34:00;;;;;;;0.20;0.20;;;-2.20;99.90;230.40;231737.00;;;;5044095;28;20218;-75
2023/03/01 01:36:29;;;;;;;0.20;0.20;;;-2.30;99.90;230.40;231737.00;;;;5050055;28;20206;-75
2023/03/01 01:38:58;;;;;;;0.20;0.20;;;-2.10;99.90;230.40;231737.00;;;;5050271;28;20198;-75
2023/03/01 01:41:29;;;;;;;0.20;0.20;;;-2.10;99.90;230.40;231737.00;;;;5057334;28;20645;-76
2023/03/01 01:44:20;;;;;;;0.20;0.20;;;-1.90;99.90;230.40;231737.00;;;;5053494;28;20704;-75
2023/03/01 01:46:53;;;;;;;0.20;0.20;;;-1.80;99.90;230.40;231737.00;;;;5045151;28;20210;-76
2023/03/01 01:49:32;;;;;;;0.20;0.20;;;-1.70;99.90;230.40;231737.00;;;;5045220;28;20214;-76
2023/03/01 01:52:12;;;;;;;0.20;0.20;;;-1.70;99.90;230.40;231737.00;;;;5046428;28;20742;-76
2023/03/01 01:54:48;;;;;;;0.20;0.20;;;-1.70;99.90;230.40;231737.00;;;;5043101;28;20202;-77
2023/03/01 01:57:23;;;;;;;0.20;0.20;;;-1.70;99.90;230.40;231737.00;;;;5046319;28;20268;-77
2023/03/01 01:59:55;;;;;;;0.20;0.20;;;-1.70;99.90;230.40;231737.00;;;;5043331;28;20230;-76
2023/03/01 02:02:24;;;;;;;0.10;0.10;;;-1.80;99.90;230.40;231737.00;;;;5047245;28;20226;-76
2023/03/01 02:05:03;;;;;;;0.20;0.20;;;-1.90;99.90;230.40;231737.00;;;;5046038;28;20680;-76
2023/03/01 02:07:31;;;;;;;0.20;0.20;;;-2.00;99.90;230.40;231737.00;;;;5035963;28;20598;-75
2023/03/01 02:09:59;;;;;;;0.20;0.20;;;-2.10;99.90;230.40;231737.00;;;;5038708;28;20207;-75
2023/03/01 02:12:30;;;;;;;0.20;0.20;;;-2.10;99.90;230.40;231737.00;;;;5044474;28;20219;-75
2023/03/01 02:14:58;;;;;;;0.20;0.20;;;-2.10;99.90;230.40;231737.00;;;;5047930;28;20194;-75
2023/03/01 02:17:26;;;;;;;0.20;0.20;;;-2.00;99.90;230.40;231737.00;;;;5046225;28;20187;-77
2023/03/01 02:20:15;;;;;;;0.20;0.20;;;-2.00;99.90;230.40;231737.00;;;;5040607;28;20202;-76
2023/03/01 02:22:47;;;;;;;0.10;0.10;;;-1.90;99.90;230.40;231737.00;;;;5043844;28;20202;-76
2023/03/01 02:25:32;;;;;;;0.10;0.10;;;-1.80;99.90;230.40;231737.00;;;;5050588;28;20186;-76
2023/03/01 02:28:09;;;;;;;0.10;0.10;;;-1.90;99.90;230.40;231737.00;;;;5041139;28;20261;-75
2023/03/01 02:31:41;;;;;;;0.20;0.20;;;-1.80;99.90;230.40;231737.00;;;;5036323;28;20215;-75
2023/03/01 02:33:27;;;;;;;0.20;0.20;;;-1.80;99.90;230.40;231737.00;;;;5040486;28;20317;-75
2023/03/01 02:35:57;;;;;;;0.20;0.20;;;-1.70;99.90;230.40;231737.00;;;;5046054;28;20199;-74
2023/03/01 02:38:25;;;;;;;0.20;0.20;;;-1.60;99.90;230.40;231737.00;;;;5047927;28;20229;-74
2023/03/01 02:40:55;;;;;;;0.10;0.10;;;-1.50;99.90;230.40;231737.00;;;;5041537;28;20218;-74
2023/03/01 02:43:29;;;;;;;0.10;0.10;;;-1.50;99.90;230.40;231737.00;;;;5046747;28;20289;-74
2023/03/01 02:46:07;;;;;;;0.20;0.20;;;-1.60;99.90;230.40;231737.00;;;;5036878;28;20203;-75
2023/03/01 02:48:45;;;;;;;0.20;0.20;;;-1.70;99.90;230.40;231737.00;;;;5052507;28;20543;-75
2023/03/01 02:51:34;;;;;;;0.10;0.10;;;-1.70;99.90;230.40;231737.00;;;;5051158;28;20766;-77
2023/03/01 02:54:16;;;;;;;0.17;0.17;;;-1.90;99.90;230.40;231737.00;;;;5042695;28;20257;-76
2023/03/01 02:56:48;;;;;;;0.20;0.20;;;-1.90;99.90;230.40;231737.00;;;;5041827;28;20202;-77
2023/03/01 02:59:23;;;;;;;0.10;0.10;;;-1.90;99.90;230.40;231737.00;;;;5037876;28;20248;-77
2023/03/01 03:01:52;;;;;;;0.10;0.10;;;-1.90;99.90;230.40;231737.00;;;;5038397;28;20250;-75
2023/03/01 03:04:21;;;;;;;0.20;0.20;;;-2.00;99.90;230.40;231737.00;;;;5040472;28;20616;-76
2023/03/01 03:06:51;;;;;;;0.20;0.20;;;-2.20;99.90;230.40;231737.00;;;;5038378;28;20195;-76
2023/03/01 03:09:20;;;;;;;0.20;0.20;;;-2.40;99.90;230.40;231737.00;;;;5033358;28;20747;-76
2023/03/01 03:11:48;;;;;;;0.10;0.10;;;-2.60;99.90;230.40;231737.00;;;;5041575;28;20213;-76
2023/03/01 03:14:18;;;;;;;0.20;0.20;;;-2.50;99.90;230.40;231737.00;;;;5047897;28;20219;-74
2023/03/01 03:16:51;;;;;;;0.10;0.10;;;-2.40;99.90;230.40;231737.00;;;;5043671;28;20589;-74
2023/03/01 03:19:20;;;;;;;0.10;0.10;;;-2.40;99.90;230.40;231737.00;;;;5038600;28;20245;-74
2023/03/01 03:21:49;;;;;;;0.20;0.20;;;-2.30;99.90;230.40;231737.00;;;;5036835;28;20276;-74
2023/03/01 03:24:18;;;;;;;0.20;0.20;;;-2.30;99.90;230.40;231737.00;;;;5039777;28;20198;-75
2023/03/01 03:26:46;;;;;;;0.20;0.20;;;-2.30;99.90;230.40;231737.00;;;;5039207;28;20478;-75
2023/03/01 03:29:14;;;;;;;0.20;0.20;;;-2.30;99.90;230.40;231737.00;;;;5052437;28;20194;-75
2023/03/01 03:31:42;;;;;;;0.15;0.15;;;-2.30;99.90;230.40;231737.00;;;;5043361;28;20291;-75
2023/03/01 03:34:17;;;;;;;0.20;0.20;;;-2.30;99.90;230.40;231737.00;;;;5040460;28;20218;-74
2023/03/01 03:36:45;;;;;;;0.20;0.20;;;-2.30;99.90;230.40;231737.00;;;;5039866;28;20241;-74
2023/03/01 03:39:13;;;;;;;0.20;0.20;;;-2.40;99.90;230.40;231737.00;;;;5048367;28;20190;-74
2023/03/01 03:41:41;;;;;;;0.20;0.20;;;-2.50;99.90;230.40;231737.00;;;;5037416;28;20223;-74
2023/03/01 03:44:09;;;;;;;0.10;0.10;;;-2.50;99.90;230.40;231737.00;;;;5050015;28;20248;-75
2023/03/01 03:46:37;;;;;;;0.20;0.20;;;-2.50;99.90;230.40;231737.00;;;;5043575;28;20195;-75
2023/03/01 03:49:05;;;;;;;0.20;0.20;;;-2.70;99.90;230.40;231737.00;;;;5043502;28;20745;-75
2023/03/01 03:51:34;;;;;;;0.20;0.20;;;-2.90;99.90;230.40;231737.00;;;;5044821;28;20264;-75
2023/03/01 03:54:02;;;;;;;0.30;0.30;;;-3.00;99.90;230.40;231737.00;;;;5034728;28;20268;-75
2023/03/01 03:56:30;;;;;;;0.20;0.20;;;-2.90;99.90;230.40;231737.00;;;;5041692;28;20194;-75
2023/03/01 03:58:58;;;;;;;0.20;0.20;;;-2.90;99.90;230.40;231737.00;;;;5038677;28;20211;-75
2023/03/01 04:01:26;;;;;;;0.10;0.10;;;-3.00;99.90;230.40;231737.00;;;;5038186;28;20264;-76
2023/03/01 04:03:55;;;;;;;0.20;0.20;;;-3.00;99.90;230.40;231737.00;;;;5033201;28;20209;-77
2023/03/01 04:06:23;;;;;;;0.20;0.20;;;-3.10;99.90;230.40;231737.00;;;;5040077;28;20224;-77
2023/03/01 04:08:59;;;;;;;0.20;0.20;;;-3.20;99.90;230.40;231737.00;;;;5047928;28;20263;-76
2023/03/01 04:11:27;;;;;;;0.20;0.20;;;-3.20;99.90;230.40;231737.00;;;;5038196;28;20233;-77
2023/03/01 04:13:59;;;;;;;0.20;0.20;;;-3.20;99.90;230.40;231737.00;;;;5041441;28;20280;-76
2023/03/01 04:16:27;;;;;;;0.20;0.20;;;-3.20;99.90;230.40;231737.00;;;;5042059;28;20198;-76
2023/03/01 04:18:59;;;;;;;0.20;0.20;;;-3.20;99.90;230.40;231737.00;;;;5046411;28;20202;-76
2023/03/01 04:21:27;;;;;;;0.20;0.20;;;-3.30;99.90;230.40;231737.00;;;;5039454;28;20222;-77
2023/03/01 04:23:56;;;;;;;0.30;0.30;;;-3.40;99.90;230.40;231737.00;;;;5042752;28;20624;-76
2023/03/01 04:26:24;;;;;;;0.20;0.20;;;-3.40;99.90;230.40;231737.00;;;;5045561;28;20194;-77
2023/03/01 04:28:52;;;;;;;0.20;0.20;;;-3.40;99.90;230.40;231737.00;;;;5048257;28;20210;-77
2023/03/01 04:31:21;;;;;;;0.20;0.20;;;-3.40;99.90;230.40;231737.00;;;;5053951;28;20227;-78
2023/03/01 04:33:52;;;;;;;0.20;0.20;;;-3.20;99.90;230.40;231737.00;;;;5056901;28;20290;-78
2023/03/01 04:36:22;;;;;;;0.20;0.20;;;-3.20;99.90;230.40;231737.00;;;;5047189;28;20214;-78
2023/03/01 04:38:51;;;;;;;0.20;0.20;;;-3.10;99.90;230.40;231737.00;;;;5047076;28;20214;-77
2023/03/01 04:41:23;;;;;;;0.20;0.20;;;-3.00;99.90;230.40;231737.00;;;;5046710;28;20220;-78
2023/03/01 04:43:51;;;;;;;0.20;0.20;;;-2.90;99.90;230.40;231737.00;;;;5058107;28;20267;-77
2023/03/01 04:46:21;;;;;;;0.20;0.20;;;-2.80;99.90;230.40;231737.00;;;;5051194;28;20195;-77
2023/03/01 04:48:50;;;;;;;0.20;0.20;;;-2.70;99.90;230.40;231737.00;;;;5052095;28;20191;-77
2023/03/01 04:51:18;;;;;;;0.20;0.20;;;-2.60;99.90;230.40;231737.00;;;;5053141;28;20210;-77
2023/03/01 04:53:47;;;;;;;0.30;0.30;;;-2.80;99.90;230.40;231737.00;;;;5053456;28;20221;-76
2023/03/01 04:56:17;;;;;;;0.20;0.20;;;-2.80;99.90;230.40;231737.00;;;;5049069;28;20257;-74
2023/03/01 04:58:47;;;;;;;0.20;0.20;;;-3.00;99.90;230.40;231737.00;;;;5051448;28;20236;-76
2023/03/01 05:01:19;;;;;;;0.20;0.20;;;-3.20;99.90;230.40;231737.00;;;;5034930;28;20246;-77
2023/03/01 05:03:49;;;;;;;0.20;0.20;;;-3.40;99.90;230.40;231737.00;;;;5043648;28;20205;-77
2023/03/01 05:06:20;;;;;;;0.20;0.20;;;-3.40;99.90;230.40;231737.00;;;;5045360;28;20194;-77
2023/03/01 05:08:48;;;;;;;0.20;0.20;;;-3.50;99.90;230.40;231737.00;;;;5038897;28;20199;-77
2023/03/01 05:11:16;;;;;;;0.20;0.20;;;-3.50;99.90;230.40;231737.00;;;;5040347;28;20219;-77
2023/03/01 05:13:44;;;;;;;0.20;0.20;;;-3.50;99.90;230.40;231737.00;;;;5046166;28;20210;-77
2023/03/01 05:16:14;;;;;;;0.20;0.20;;;-3.30;99.90;230.40;231737.00;;;;5045600;28;20253;-78
2023/03/01 05:18:42;;;;;;;0.30;0.30;;;-3.30;99.90;230.40;231737.00;;;;5054469;28;20194;-78
2023/03/01 05:21:15;;;;;;;0.20;0.20;;;-3.40;99.90;230.40;231737.00;;;;5038271;28;20218;-78
2023/03/01 05:23:44;;;;;;;0.20;0.20;;;-3.40;99.90;230.40;231737.00;;;;5047037;28;20206;-78
2023/03/01 05:26:13;;;;;;;0.20;0.20;;;-3.30;99.90;230.40;231737.00;;;;5052544;28;20206;-78
2023/03/01 05:28:58;;;;;;;0.20;0.20;;;-3.20;99.90;230.40;231737.00;;;;5045491;28;20226;-78
2023/03/01 05:31:30;;;;;;;0.20;0.20;;;-3.50;99.90;230.40;231737.00;;;;5043135;28;20214;-78
2023/03/01 05:33:58;;;;;;;0.20;0.20;;;-3.50;99.90;230.40;231737.00;;;;5055604;28;20202;-78
2023/03/01 05:36:26;;;;;;;0.20;0.20;;;-3.60;99.90;230.40;231737.00;;;;5053476;28;20186;-76
2023/03/01 05:38:55;;;;;;;0.20;0.20;;;-3.70;99.90;230.40;231737.00;;;;5049077;28;20201;-77
2023/03/01 05:41:23;;;;;;;0.25;0.25;;;-3.70;99.90;230.40;231737.00;;;;5053929;28;20242;-76
2023/03/01 05:43:51;;;;;;;0.20;0.20;;;-3.80;99.90;230.40;231737.00;;;;5053380;28;20194;-76
2023/03/01 05:46:19;;;;;;;0.22;0.22;;;-3.80;99.90;230.40;231737.00;;;;5058478;28;20199;-76
2023/03/01 05:48:49;;;;;;;0.20;0.20;;;-3.70;99.90;230.40;231737.00;;;;5046614;28;20229;-76
2023/03/01 05:51:17;;;;;;;0.20;0.20;;;-3.70;99.90;230.40;231737.00;;;;5051953;28;20241;-76
2023/03/01 05:53:45;;;;;;;0.20;0.20;;;-3.70;99.90;230.40;231737.00;;;;5054478;28;20194;-75
2023/03/01 05:56:13;;;;;;;0.20;0.20;;;-3.60;99.90;230.40;231737.00;;;;5045651;28;20256;-75
2023/03/01 05:58:41;;;;;;;0.20;0.20;;;-3.50;99.90;230.40;231737.00;;;;5048859;28;20191;-74
2023/03/01 06:01:13;;;;;;;0.20;0.20;;;-3.30;99.90;230.40;231737.00;;;;5049626;28;20218;-75
2023/03/01 06:03:41;;;;;;;0.20;0.20;;;-3.20;99.90;230.40;231737.00;;;;5042672;28;20201;-76
2023/03/01 06:06:11;;;;;;;0.20;0.20;;;-3.20;99.90;230.40;231737.00;;;;5042440;28;20206;-76
2023/03/01 06:08:39;;;;;;;0.20;0.20;;;-3.20;99.90;230.40;231737.00;;;;5043496;28;20604;-78
2023/03/01 06:11:07;;;;;;;0.20;0.20;;;-3.20;99.90;230.40;231737.00;;;;5053980;28;20230;-78
2023/03/01 06:13:35;;;;;;;0.20;0.20;;;-3.40;99.90;230.40;231737.00;;;;5055139;28;20205;-78
2023/03/01 06:16:06;;;;;;;0.20;0.20;;;-3.50;99.90;230.40;231737.00;;;;5045567;28;20276;-78
2023/03/01 06:18:35;;;;;;;0.20;0.20;;;-3.50;99.90;230.40;231737.00;;;;5044416;28;20217;-78
2023/03/01 06:21:03;;;;;;;0.20;0.20;;;-3.50;99.90;230.40;231737.00;;;;5045050;28;20227;-77
2023/03/01 06:23:32;;;;;;;0.20;0.20;;;-3.60;99.90;230.40;231737.00;;;;5057038;28;20891;-80
2023/03/01 06:26:01;;;;;;;0.20;0.20;;;-3.70;99.90;230.40;231737.00;;;;5056554;28;20202;-80
2023/03/01 06:28:29;;;;;;;0.20;0.20;;;-3.70;99.90;230.40;231737.00;;;;5051430;28;20198;-78
2023/03/01 06:30:57;;;;;;;0.20;0.20;;;-3.70;99.90;230.40;231737.00;;;;5062568;28;20226;-78
2023/03/01 06:33:25;;;;;;;0.20;0.20;;;-3.70;99.90;230.40;231737.00;;;;5047744;28;20605;-78
2023/03/01 06:35:55;;;;;;;0.20;0.20;;;-3.80;99.90;230.40;231737.00;;;;5051898;28;20226;-77
2023/03/01 06:38:24;;;;;;;0.20;0.20;;;-3.80;99.90;230.40;231737.00;;;;5056298;28;20198;-77
2023/03/01 06:40:56;;;;;;;0.20;0.20;;;-3.80;99.90;230.40;231737.00;;;;5056273;28;20276;-77
2023/03/01 06:43:24;;;;;;;0.20;0.20;;;-3.70;99.90;230.40;231737.00;;;;5058550;28;20194;-77
2023/03/01 06:45:52;;;;;;;0.20;0.20;;;-3.70;99.90;230.40;231737.00;;;;5049266;28;20199;-78
2023/03/01 06:48:20;;;;;;;0.30;0.30;;;-3.80;99.90;230.40;231737.00;;;;5053624;28;20203;-77
2023/03/01 06:50:48;;;;;;;0.20;0.20;;;-3.70;99.90;230.40;231737.00;;;;5046739;28;20635;-77
2023/03/01 06:53:16;;;;;;;0.20;0.20;;;-3.70;99.90;230.40;231737.00;;;;5049748;28;20248;-77
2023/03/01 06:55:44;;;;;;;0.20;0.20;;;-3.60;99.90;230.40;231737.00;;;;5049980;28;20668;-77
2023/03/01 06:58:13;;;;;;;0.20;0.20;;;-3.70;99.90;230.40;231737.00;;;;5052623;28;20554;-77
2023/03/01 07:00:42;;;;;;;0.20;0.20;;;-3.70;99.90;230.40;231737.00;;;;5050947;28;20226;-77
2023/03/01 07:03:10;;;;;;;0.20;0.20;;;-3.60;99.90;230.40;231737.00;;;;5045539;28;20233;-76
2023/03/01 07:05:38;;;;;;;0.20;0.20;;;-3.50;99.90;230.40;231737.00;;;;5052861;28;20230;-76
2023/03/01 07:08:06;;;;;;;0.20;0.20;;;-3.40;99.90;230.40;231737.00;;;;5057739;28;20732;-77
2023/03/01 07:10:34;;;;;;;0.20;0.20;;;-3.40;99.90;230.40;231737.00;;;;5050952;28;20257;-78
2023/03/01 07:13:03;;;;;;;0.20;0.20;;;-3.50;99.90;230.40;231737.00;;;;5055937;28;20228;-77
2023/03/01 07:15:32;;;;;;;0.20;0.20;;;-3.50;99.90;230.40;231737.00;;;;5064946;28;20245;-76
2023/03/01 07:18:00;;;;;;;0.30;0.30;;;-3.50;99.90;230.40;231737.00;;;;5059254;28;20203;-77
2023/03/01 07:20:28;;;;;;;0.20;0.20;;;-3.50;99.90;230.40;231737.00;;;;5063345;28;20220;-77
2023/03/01 07:22:58;;;;;;;0.30;0.30;;;-3.40;99.90;230.40;231737.00;;;;5048427;28;20199;-77
2023/03/01 07:25:26;;;;;;;0.20;0.20;;;-3.30;99.90;230.40;231737.00;;;;5056730;28;20275;-77
2023/03/01 07:27:54;;;;;;;0.20;0.20;;;-3.30;99.90;230.40;231737.00;;;;5046891;28;20612;-78
2023/03/01 07:30:25;;;;;;;0.20;0.20;;;-3.20;99.90;230.40;231737.00;;;;5060670;28;20616;-78
2023/03/01 07:32:55;;;;;;;0.20;0.20;;;-3.20;99.90;230.40;231737.00;;;;5061973;28;20202;-78
2023/03/01 07:35:24;;;;;;;0.20;0.20;;;-3.10;99.90;230.40;231737.00;;;;5050823;28;20223;-78
2023/03/01 07:37:52;;;;;;;0.20;0.20;;;-3.10;99.90;230.40;231737.00;;;;5051407;28;20269;-78
2023/03/01 07:40:21;;;;;;;0.20;0.20;;;-3.00;99.90;230.40;231737.00;;;;5055570;28;20221;-76
2023/03/01 07:42:48;;;;;;;0.15;0.15;;;-2.90;99.90;230.40;231737.00;;;;5047311;28;20206;-77
2023/03/01 07:45:17;;;;;;;0.20;0.20;;;-2.70;99.90;230.40;231737.00;;;;5047238;28;20194;-78
2023/03/01 07:47:44;;;;;;;0.20;0.20;;;-2.60;99.90;230.40;231737.00;;;;5051431;28;20222;-78
2023/03/01 07:50:15;;;;;;;0.20;0.20;;;-2.50;99.90;230.40;231737.00;;;;5059222;28;20198;-77
2023/03/01 07:52:45;;;;;;;0.20;0.20;;;-2.40;99.90;230.40;231737.00;;;;5057823;28;20191;-78
2023/03/01 07:55:14;;;;;;;0.20;0.20;;;-2.40;99.90;230.40;231737.00;;;;5047370;28;20222;-78
2023/03/01 07:57:42;;;;;;;0.20;0.20;;;-2.40;99.90;230.40;231737.00;;;;5059139;28;20198;-77
2023/03/01 08:00:12;;;;;;;0.20;0.20;;;-2.70;99.90;230.40;231737.00;;;;5056125;28;20225;-78
2023/03/01 08:02:41;;;;;;;0.20;0.20;;;-2.70;99.90;230.40;231737.00;;;;5060488;28;20215;-76
2023/03/01 08:05:10;;;;;;;0.20;0.20;;;-2.60;99.90;230.40;231737.00;;;;5050940;28;20198;-73
2023/03/01 08:07:39;;;;;;;0.20;0.20;;;-2.60;99.90;230.40;231737.00;;;;5052491;28;20562;-74
2023/03/01 08:10:08;;;;;;;0.20;0.20;;;-2.50;99.90;230.40;231737.00;;;;5036766;28;20249;-74
2023/03/01 08:12:36;;;;;;;0.20;0.20;;;-2.40;99.90;230.40;231737.00;;;;5040150;28;20214;-74
2023/03/01 08:15:06;;;;;;;0.20;0.20;;;-2.30;99.90;230.40;231737.00;;;;5043253;28;20243;-74
2023/03/01 08:17:34;;;;;;;0.20;0.20;;;-2.20;99.90;230.40;231737.00;;;;5040763;28;20309;-74
2023/03/01 08:20:03;;;;;;;0.20;0.20;;;-2.00;99.90;230.40;231737.00;;;;5048503;28;20248;-73
2023/03/01 08:22:31;;;;;;;0.20;0.20;;;-1.80;99.90;230.40;231737.00;;;;5043279;28;20567;-73
2023/03/01 08:25:00;;;;;;;0.20;0.20;;;-1.60;99.90;230.40;231737.00;;;;5055198;28;20475;-74
2023/03/01 08:27:28;;;;;;;0.10;0.10;;;-1.50;99.90;230.40;231737.00;;;;5050014;28;20240;-75
2023/03/01 08:29:56;;;;;;;0.10;0.10;;;-1.40;99.90;230.40;231737.00;;;;5050694;28;20201;-75
2023/03/01 08:32:24;;;;;;;0.20;0.20;;;-1.30;99.90;230.40;231737.00;;;;5045985;28;20212;-74
2023/03/01 08:34:52;;;;;;;0.10;0.10;;;-1.20;99.90;230.40;231737.00;;;;5054207;28;20202;-74
2023/03/01 08:37:20;;;;;;;0.17;0.17;;;-1.10;99.90;230.40;231737.00;;;;5047491;28;20237;-75
2023/03/01 08:39:48;;;;;;;0.20;0.20;;;-1.10;99.90;230.40;231737.00;;;;5050253;28;20198;-75
2023/03/01 08:42:17;;;;;;;0.15;0.15;;;-1.00;99.90;230.40;231737.00;;;;5054433;28;20206;-74
2023/03/01 08:44:45;;;;;;;0.20;0.20;;;-0.90;99.90;230.40;231737.00;;;;5041588;28;20652;-74
2023/03/01 08:47:14;;;;;;;0.10;0.10;;;-0.80;99.90;230.40;231737.00;;;;5050380;28;20195;-74
2023/03/01 08:49:42;;;;;;;0.10;0.10;;;-0.70;99.90;230.40;231737.00;;;;5046279;28;20291;-74
2023/03/01 08:52:10;;;;;;;0.10;0.10;;;-0.50;99.90;230.40;231737.00;;;;5051007;28;20287;-74
2023/03/01 08:54:38;;;;;;;0.20;0.20;;;-0.50;99.90;230.40;231737.00;;;;5045252;28;20199;-74
2023/03/01 08:57:06;;;;;;;0.10;0.10;;;-0.40;99.90;230.40;231737.00;;;;5053088;28;20280;-75
2023/03/01 08:59:37;;;;;;;0.10;0.10;;;-0.40;99.90;230.40;231737.00;;;;5045797;28;20248;-75
2023/03/01 09:02:05;;;;;;;0.20;0.20;;;-0.30;99.90;230.40;231737.00;;;;5042283;28;20222;-75
2023/03/01 09:04:33;;;;;;;0.10;0.10;;;-0.20;99.90;230.40;231737.00;;;;5045932;28;20613;-75
2023/03/01 09:07:01;;;;;;;0.10;0.10;;;-0.10;99.90;230.40;231737.00;;;;5052251;28;20233;-75
2023/03/01 09:09:29;;;;;;;0.15;0.15;;;0.00;99.90;230.40;231737.00;;;;5048727;28;20284;-75
2023/03/01 09:11:57;;;;;;;0.10;0.10;;;0.00;99.90;230.40;231737.00;;;;5046175;28;20630;-75
2023/03/01 09:14:25;;;;;;;0.10;0.10;;;0.10;99.90;230.40;231737.00;;;;5040970;28;20199;-75
2023/03/01 09:16:55;;;;;;;0.20;0.20;;;0.10;99.90;230.40;231737.00;;;;5044271;28;20222;-75
2023/03/01 09:19:23;;;;;;;0.10;0.10;;;0.20;99.90;230.40;231737.00;;;;5054580;28;20293;-75
2023/03/01 09:21:55;;;;;;;0.20;0.20;;;0.30;99.90;230.40;231737.00;;;;5047991;28;20226;-75
2023/03/01 09:24:25;;;;;;;0.10;0.10;;;0.40;99.90;230.40;231737.00;;;;5045539;28;20202;-75
2023/03/01 09:26:55;;;;;;;0.20;0.20;;;0.40;99.90;230.40;231737.00;;;;5051677;28;20602;-75
2023/03/01 09:29:24;;;;;;;0.10;0.10;;;0.50;99.90;230.40;231737.00;;;;5045519;28;20198;-75
2023/03/01 09:31:55;;;;;;;0.10;0.10;;;0.50;99.90;230.40;231737.00;;;;5047088;28;20619;-75
2023/03/01 09:34:23;;;;;;;0.17;0.17;;;0.60;99.90;230.40;231737.00;;;;5044265;28;20214;-75
2023/03/01 09:36:52;;;;;;;0.10;0.10;;;0.70;99.90;230.40;231737.00;;;;5041352;28;20318;-75
2023/03/01 09:39:21;;;;;;;0.10;0.10;;;0.70;99.90;230.40;231737.00;;;;5037490;28;20282;-75
2023/03/01 09:42:01;;;;;;;0.10;0.10;;;0.70;99.90;230.40;231737.00;;;;5041620;28;20714;-75
2023/03/01 09:44:38;;;;;;;0.20;0.20;;;0.80;99.90;230.40;231737.00;;;;5047142;28;20557;-75
2023/03/01 09:47:15;;;;;;;0.15;0.15;;;1.00;99.90;230.40;231737.00;;;;5047702;28;20206;-75
2023/03/01 09:49:54;;;;;;;0.15;0.15;;;1.00;99.90;230.40;231737.00;;;;5049761;28;20251;-75
2023/03/01 09:52:34;;;;;;;0.10;0.10;;;1.00;99.90;230.40;231737.00;;;;5048265;28;20360;-75
2023/03/01 09:55:08;;;;;;;0.10;0.10;;;1.00;99.90;230.40;231737.00;;;;5049180;28;20667;-74
2023/03/01 09:57:47;;;;;;;0.13;0.13;;;1.10;99.90;230.40;231737.00;;;;5046581;28;20264;-75
2023/03/01 10:00:32;;;;;;;0.10;0.10;;;1.20;99.90;230.40;231737.00;;;;5041891;28;20246;-75
2023/03/01 10:03:15;;;;;;;0.10;0.10;;;1.30;99.90;230.40;231737.00;;;;5050129;28;20190;-75
2023/03/01 10:05:56;;;;;;;0.10;0.10;;;1.30;99.90;230.40;231737.00;;;;5048468;28;20727;-75
2023/03/01 10:08:36;;;;;;;0.10;0.10;;;1.20;99.90;230.40;231737.00;;;;5052404;28;20202;-75
2023/03/01 10:11:17;;;;;;;0.10;0.10;;;1.20;99.90;230.40;231737.00;;;;5045184;28;20230;-75
2023/03/01 10:13:57;;;;;;;0.20;0.20;;;1.40;99.90;230.40;231737.00;;;;5049060;28;20277;-75
2023/03/01 10:16:40;;;;;;;0.10;0.10;;;1.60;99.90;230.40;231737.00;;;;5048652;28;20263;-75
2023/03/01 10:19:17;;;;;;;0.10;0.10;;;1.70;99.90;230.40;231737.00;;;;5051508;28;20198;-75
2023/03/01 10:21:47;;;;;;;0.10;0.10;;;1.80;99.90;230.40;231737.00;;;;5047902;28;20226;-75
2023/03/01 10:24:21;;;;;;;0.10;0.10;;;1.80;99.90;230.40;231737.00;;;;5052825;28;20278;-75
2023/03/01 10:26:56;;;;;;;0.10;0.10;;;1.90;99.90;230.40;231737.00;;;;5046943;28;20675;-75
2023/03/01 10:29:32;;;;;;;0.10;0.10;;;2.00;99.90;230.40;231737.00;;;;5049368;28;20693;-75
2023/03/01 10:32:00;;;;;;;0.10;0.10;;;2.10;99.90;230.40;231737.00;;;;5051941;28;20271;-75
2023/03/01 10:34:33;;;;;;;0.10;0.10;;;2.20;99.90;230.40;231737.00;;;;5048122;28;20194;-75
2023/03/01 10:37:11;;;;;;;0.10;0.10;;;2.30;99.90;230.40;231737.00;;;;5043877;28;20578;-75
2023/03/01 10:40:00;;;;;;;0.10;0.10;;;2.40;99.90;230.40;231737.00;;;;5047779;28;20202;-75
2023/03/01 10:42:32;;;;;;;0.10;0.10;;;2.40;99.90;230.40;231737.00;;;;5045717;28;20272;-75
2023/03/01 10:45:17;;;;;;;0.10;0.10;;;2.50;99.90;230.40;231737.00;;;;5043400;28;20202;-75
2023/03/01 10:47:45;;;;;;;0.10;0.10;;;2.60;99.90;230.40;231737.00;;;;5042558;28;20594;-75
2023/03/01 10:50:23;;;;;;;0.10;0.10;;;2.70;99.90;230.40;231737.00;;;;5046317;28;20197;-75
2023/03/01 10:53:00;;;;;;;0.10;0.10;;;2.70;99.90;230.40;231737.00;;;;5050763;28;20682;-75
2023/03/01 10:55:35;;;;;;;0.10;0.10;;;2.80;99.90;230.40;231737.00;;;;5042824;28;20191;-75